createdAt,value
2023-01-22T00:01:35.527Z,59.57
2023-01-22T00:04:04.905Z,59.46
2023-01-22T00:06:33.881Z,59.40
2023-01-22T00:09:04.417Z,59.77
2023-01-22T00:11:33.227Z,59.78
2023-01-22T00:14:02.114Z,59.91
2023-01-22T00:16:31.188Z,60.11
2023-01-22T00:19:00.064Z,59.78
2023-01-22T00:21:29.084Z,59.82
2023-01-22T00:23:57.939Z,59.87
2023-01-22T00:26:27.105Z,59.85
2023-01-22T00:28:56.089Z,59.80
2023-01-22T00:31:25.044Z,59.95
2023-01-22T00:33:53.946Z,60.08
2023-01-22T00:36:23.381Z,59.83
2023-01-22T00:38:52.462Z,59.50
2023-01-22T00:41:21.575Z,59.55
2023-01-22T00:43:52.784Z,59.45
2023-01-22T00:46:22.016Z,59.44
2023-01-22T00:48:51.742Z,59.42
2023-01-22T00:51:20.881Z,59.35
2023-01-22T00:53:49.813Z,59.49
2023-01-22T00:56:18.757Z,59.41
2023-01-22T00:58:47.826Z,59.28
2023-01-22T01:01:18.170Z,59.58
2023-01-22T01:03:47.466Z,59.65
2023-01-22T01:06:20.483Z,59.79
2023-01-22T01:08:50.844Z,59.58
2023-01-22T01:11:25.767Z,59.61
2023-01-22T01:13:55.104Z,59.76
2023-01-22T01:16:32.526Z,59.50
2023-01-22T01:19:07.249Z,59.71
2023-01-22T01:21:36.097Z,59.76
2023-01-22T01:24:05.901Z,59.50
2023-01-22T01:26:35.947Z,59.22
2023-01-22T01:29:05.779Z,59.34
2023-01-22T01:31:34.618Z,59.31
2023-01-22T01:34:04.912Z,59.60
2023-01-22T01:36:48.282Z,59.42
2023-01-22T01:39:18.633Z,59.53
2023-01-22T01:41:48.958Z,59.43
2023-01-22T01:44:23.537Z,59.43
2023-01-22T01:47:00.969Z,59.64
2023-01-22T01:49:34.459Z,59.46
2023-01-22T01:52:11.480Z,59.53
2023-01-22T01:54:43.435Z,59.55
2023-01-22T01:57:36.066Z,59.31
2023-01-22T02:00:13.096Z,59.63
2023-01-22T02:02:42.348Z,59.54
2023-01-22T02:05:11.838Z,59.66
2023-01-22T02:07:40.833Z,59.61
2023-01-22T02:10:10.578Z,59.65
2023-01-22T02:12:39.616Z,59.96
2023-01-22T02:15:10.051Z,59.77
2023-01-22T02:17:38.871Z,59.79
2023-01-22T02:20:08.439Z,59.76
2023-01-22T02:22:40.309Z,59.98
2023-01-22T02:25:10.118Z,59.89
2023-01-22T02:27:39.592Z,59.96
2023-01-22T02:30:09.273Z,59.72
2023-01-22T02:32:38.158Z,60.17
2023-01-22T02:35:07.723Z,60.06
2023-01-22T02:37:39.419Z,60.02
2023-01-22T02:40:08.899Z,60.08
2023-01-22T02:42:37.884Z,60.18
2023-01-22T02:45:07.730Z,60.07
2023-01-22T02:47:37.685Z,60.30
2023-01-22T02:50:08.124Z,59.90
2023-01-22T02:52:37.273Z,60.00
2023-01-22T02:55:06.670Z,60.22
2023-01-22T02:57:35.602Z,60.40
2023-01-22T03:00:05.915Z,60.16
2023-01-22T03:02:35.302Z,60.18
2023-01-22T03:05:04.648Z,60.01
2023-01-22T03:07:45.685Z,60.19
2023-01-22T03:10:18.495Z,60.26
2023-01-22T03:13:07.492Z,59.89
2023-01-22T03:15:58.182Z,60.21
2023-01-22T03:18:45.539Z,60.30
2023-01-22T03:21:16.317Z,60.29
2023-01-22T03:23:54.549Z,60.28
2023-01-22T03:26:25.333Z,60.42
2023-01-22T03:28:54.224Z,60.54
2023-01-22T03:31:23.127Z,60.42
2023-01-22T03:33:53.143Z,60.46
2023-01-22T03:36:22.402Z,60.45
2023-01-22T03:38:53.691Z,60.36
2023-01-22T03:41:25.867Z,60.38
2023-01-22T03:43:55.243Z,60.60
2023-01-22T03:46:30.011Z,60.28
2023-01-22T03:49:00.283Z,60.67
2023-01-22T03:51:29.989Z,60.54
2023-01-22T03:54:00.277Z,60.67
2023-01-22T03:56:31.672Z,60.50
2023-01-22T03:59:07.416Z,60.57
2023-01-22T04:01:37.845Z,60.40
2023-01-22T04:04:07.044Z,60.49
2023-01-22T04:06:36.283Z,60.48
2023-01-22T04:09:05.188Z,60.39
2023-01-22T04:11:39.164Z,60.42
2023-01-22T04:14:10.266Z,60.56
2023-01-22T04:16:44.045Z,60.68
2023-01-22T04:19:32.201Z,60.57
2023-01-22T04:22:19.369Z,60.51
2023-01-22T04:24:50.952Z,60.83
2023-01-22T04:27:19.902Z,60.60
2023-01-22T04:29:52.103Z,60.73
2023-01-22T04:32:22.216Z,60.84
2023-01-22T04:35:05.132Z,60.59
2023-01-22T04:37:40.923Z,60.61
2023-01-22T04:40:10.929Z,60.83
2023-01-22T04:42:40.044Z,60.96
2023-01-22T04:45:09.944Z,60.85
2023-01-22T04:47:50.711Z,60.89
2023-01-22T04:50:27.527Z,60.82
2023-01-22T04:52:57.687Z,61.08
2023-01-22T04:55:27.356Z,61.10
2023-01-22T04:58:05.806Z,60.89
2023-01-22T05:00:36.796Z,61.09
2023-01-22T05:03:06.304Z,61.05
2023-01-22T05:05:35.558Z,61.04
2023-01-22T05:08:05.024Z,61.24
2023-01-22T05:10:38.633Z,61.31
2023-01-22T05:13:10.527Z,61.11
2023-01-22T05:15:41.010Z,61.08
2023-01-22T05:18:12.732Z,61.20
2023-01-22T05:20:48.871Z,61.39
2023-01-22T05:23:19.668Z,61.28
2023-01-22T05:25:50.690Z,61.15
2023-01-22T05:28:29.480Z,61.30
2023-01-22T05:31:19.010Z,61.22
2023-01-22T05:34:09.114Z,61.33
2023-01-22T05:36:40.514Z,61.22
2023-01-22T05:39:24.049Z,61.18
2023-01-22T05:41:55.685Z,61.47
2023-01-22T05:44:26.749Z,61.28
2023-01-22T05:46:57.220Z,61.23
2023-01-22T05:49:29.015Z,61.43
2023-01-22T05:52:00.581Z,61.32
2023-01-22T05:54:29.721Z,61.19
2023-01-22T05:57:01.357Z,61.17
2023-01-22T05:59:31.117Z,61.38
2023-01-22T06:02:05.276Z,61.44
2023-01-22T06:04:37.504Z,61.36
2023-01-22T06:07:16.327Z,61.37
2023-01-22T06:09:45.281Z,61.39
2023-01-22T06:12:16.103Z,61.64
2023-01-22T06:14:45.079Z,61.53
2023-01-22T06:17:14.961Z,61.75
2023-01-22T06:19:49.850Z,61.64
2023-01-22T06:22:20.686Z,61.47
2023-01-22T06:24:54.134Z,61.70
2023-01-22T06:27:25.801Z,61.65
2023-01-22T06:29:59.616Z,61.56
2023-01-22T06:32:28.763Z,61.54
2023-01-22T06:34:57.698Z,61.74
2023-01-22T06:37:26.531Z,61.84
2023-01-22T06:39:55.339Z,61.80
2023-01-22T06:42:36.944Z,61.69
2023-01-22T06:45:06.894Z,61.35
2023-01-22T06:47:36.890Z,61.62
2023-01-22T06:50:06.312Z,61.58
2023-01-22T06:52:36.433Z,61.64
2023-01-22T06:55:05.908Z,61.82
2023-01-22T06:57:34.912Z,62.29
2023-01-22T07:00:05.521Z,62.05
2023-01-22T07:02:34.918Z,61.88
2023-01-22T07:05:04.528Z,62.18
2023-01-22T07:07:33.483Z,62.09
2023-01-22T07:10:02.512Z,62.06
2023-01-22T07:12:31.790Z,62.19
2023-01-22T07:15:00.677Z,62.28
2023-01-22T07:17:31.588Z,62.01
2023-01-22T07:20:00.732Z,61.77
2023-01-22T07:22:32.138Z,61.60
2023-01-22T07:25:02.020Z,61.59
2023-01-22T07:27:33.158Z,61.82
2023-01-22T07:30:03.652Z,61.95
2023-01-22T07:32:33.221Z,61.65
2023-01-22T07:35:02.284Z,61.70
2023-01-22T07:37:31.783Z,61.80
2023-01-22T07:40:00.709Z,61.73
2023-01-22T07:42:29.636Z,61.55
2023-01-22T07:44:58.597Z,61.77
2023-01-22T07:47:27.507Z,61.69
2023-01-22T07:49:56.335Z,61.81
2023-01-22T07:52:25.420Z,62.01
2023-01-22T07:54:57.127Z,61.69
2023-01-22T07:57:25.974Z,61.71
2023-01-22T07:59:54.819Z,61.66
2023-01-22T08:02:24.409Z,61.64
2023-01-22T08:04:54.088Z,62.26
2023-01-22T08:07:24.294Z,61.95
2023-01-22T08:09:53.501Z,62.13
2023-01-22T08:12:22.308Z,62.12
2023-01-22T08:14:51.172Z,62.22
2023-01-22T08:17:20.061Z,63.02
2023-01-22T08:19:49.250Z,63.67
2023-01-22T08:22:18.305Z,63.34
2023-01-22T08:24:47.214Z,63.02
2023-01-22T08:27:16.818Z,62.31
2023-01-22T08:29:45.744Z,62.48
2023-01-22T08:32:14.851Z,62.07
2023-01-22T08:34:43.809Z,62.64
2023-01-22T08:37:12.728Z,62.57
2023-01-22T08:39:41.781Z,62.64
2023-01-22T08:42:12.569Z,62.94
2023-01-22T08:44:41.407Z,63.23
2023-01-22T08:47:12.143Z,63.30
2023-01-22T08:49:41.263Z,62.43
2023-01-22T08:52:10.281Z,61.34
2023-01-22T08:54:39.328Z,61.28
2023-01-22T08:57:08.226Z,60.57
2023-01-22T08:59:37.357Z,59.72
2023-01-22T09:02:08.064Z,60.04
2023-01-22T09:04:39.048Z,60.42
2023-01-22T09:07:11.398Z,60.62
2023-01-22T09:09:40.469Z,60.62
2023-01-22T09:12:09.738Z,61.06
2023-01-22T09:14:38.622Z,61.04
2023-01-22T09:17:07.573Z,61.28
2023-01-22T09:19:36.443Z,61.20
2023-01-22T09:22:07.214Z,61.39
2023-01-22T09:24:36.359Z,61.38
2023-01-22T09:27:05.230Z,61.32
2023-01-22T09:29:34.158Z,61.38
2023-01-22T09:32:03.115Z,61.65
2023-01-22T09:34:32.101Z,61.64
2023-01-22T09:37:06.485Z,61.63
2023-01-22T09:39:35.564Z,61.51
2023-01-22T09:42:05.207Z,61.84
2023-01-22T09:44:42.974Z,61.60
2023-01-22T09:47:19.403Z,61.60
2023-01-22T09:49:55.062Z,61.76
2023-01-22T09:52:30.649Z,61.41
2023-01-22T09:54:59.587Z,61.56
2023-01-22T09:57:32.044Z,61.37
2023-01-22T10:00:01.370Z,61.49
2023-01-22T10:03:12.505Z,61.82
2023-01-22T10:05:58.378Z,61.81
2023-01-22T10:08:34.900Z,61.51
2023-01-22T10:11:04.261Z,61.69
2023-01-22T10:13:36.201Z,61.82
2023-01-22T10:16:07.179Z,61.61
2023-01-22T10:18:39.280Z,61.45
2023-01-22T10:21:31.137Z,61.38
2023-01-22T10:24:01.043Z,61.38
2023-01-22T10:26:39.061Z,61.60
2023-01-22T10:29:23.347Z,61.53
2023-01-22T10:31:58.592Z,61.51
2023-01-22T10:34:35.162Z,61.79
2023-01-22T10:37:16.114Z,61.63
2023-01-22T10:39:48.358Z,61.67
2023-01-22T10:42:26.411Z,61.68
2023-01-22T10:45:20.120Z,61.58
2023-01-22T10:47:48.995Z,61.55
2023-01-22T10:50:19.207Z,61.76
2023-01-22T10:52:56.135Z,61.52
2023-01-22T10:55:29.962Z,61.72
2023-01-22T10:58:06.466Z,61.86
2023-01-22T11:00:51.543Z,61.74
2023-01-22T11:03:34.584Z,61.40
2023-01-22T11:06:19.727Z,61.47
2023-01-22T11:08:52.243Z,61.73
2023-01-22T11:11:27.175Z,61.59
2023-01-22T11:14:05.250Z,61.68
2023-01-22T11:16:38.230Z,61.34
2023-01-22T11:19:32.576Z,61.20
2023-01-22T11:22:23.152Z,61.47
2023-01-22T11:24:52.445Z,61.77
2023-01-22T11:27:39.775Z,61.60
2023-01-22T11:30:19.106Z,61.71
2023-01-22T11:33:05.784Z,61.75
2023-01-22T11:36:09.798Z,61.77
2023-01-22T11:38:44.809Z,61.89
2023-01-22T11:41:31.421Z,61.70
2023-01-22T11:44:28.401Z,61.69
2023-01-22T11:47:47.708Z,61.83
2023-01-22T11:50:48.783Z,61.73
2023-01-22T11:53:32.769Z,61.62
2023-01-22T11:56:07.946Z,61.69
2023-01-22T11:58:39.510Z,61.55
2023-01-22T12:01:38.494Z,61.50
2023-01-22T12:04:33.564Z,61.28
2023-01-22T12:07:25.471Z,61.35
2023-01-22T12:10:31.829Z,61.31
2023-01-22T12:13:31.247Z,61.63
2023-01-22T12:16:05.422Z,61.52
2023-01-22T12:18:52.697Z,61.33
2023-01-22T12:21:26.864Z,61.46
2023-01-22T12:24:28.383Z,61.47
2023-01-22T12:27:18.362Z,61.46
2023-01-22T12:30:05.979Z,61.61
2023-01-22T12:32:37.786Z,61.40
2023-01-22T12:35:15.560Z,61.13
2023-01-22T12:37:54.577Z,61.20
2023-01-22T12:41:00.259Z,61.61
2023-01-22T12:43:56.203Z,61.37
2023-01-22T12:46:36.690Z,61.34
2023-01-22T12:49:10.965Z,61.08
2023-01-22T12:51:39.847Z,61.30
2023-01-22T12:54:22.508Z,61.27
2023-01-22T12:56:54.566Z,61.35
2023-01-22T12:59:39.554Z,61.18
2023-01-22T13:02:36.550Z,61.17
2023-01-22T13:05:19.819Z,60.99
2023-01-22T13:07:50.777Z,61.23
2023-01-22T13:10:32.851Z,61.23
2023-01-22T13:13:22.749Z,61.26
2023-01-22T13:15:55.509Z,60.80
2023-01-22T13:18:31.536Z,61.17
2023-01-22T13:21:08.749Z,61.18
2023-01-22T13:23:46.649Z,61.13
2023-01-22T13:26:27.837Z,61.02
2023-01-22T13:29:19.346Z,61.11
2023-01-22T13:32:01.199Z,61.20
2023-01-22T13:34:30.939Z,61.21
2023-01-22T13:36:59.992Z,61.15
2023-01-22T13:39:32.673Z,60.93
2023-01-22T13:42:06.553Z,61.07
2023-01-22T13:44:38.685Z,61.38
2023-01-22T13:47:07.719Z,60.97
2023-01-22T13:49:43.877Z,61.04
2023-01-22T13:52:18.892Z,61.34
2023-01-22T13:55:01.886Z,61.07
2023-01-22T13:57:32.048Z,61.11
2023-01-22T14:00:03.914Z,61.11
2023-01-22T14:02:37.242Z,61.20
2023-01-22T14:05:28.222Z,61.32
2023-01-22T14:08:12.675Z,61.22
2023-01-22T14:10:43.909Z,61.18
2023-01-22T14:13:14.460Z,61.34
2023-01-22T14:15:43.558Z,61.09
2023-01-22T14:18:15.230Z,61.06
2023-01-22T14:20:46.301Z,61.23
2023-01-22T14:23:16.116Z,60.92
2023-01-22T14:25:51.708Z,60.98
2023-01-22T14:28:22.921Z,61.45
2023-01-22T14:30:53.132Z,61.37
2023-01-22T14:33:31.188Z,61.07
2023-01-22T14:36:00.516Z,61.14
2023-01-22T14:38:29.997Z,61.23
2023-01-22T14:40:58.892Z,61.16
2023-01-22T14:43:27.779Z,61.12
2023-01-22T14:45:56.973Z,61.22
2023-01-22T14:48:26.536Z,61.28
2023-01-22T14:50:55.479Z,61.20
2023-01-22T14:53:24.341Z,61.10
2023-01-22T14:55:53.246Z,61.08
2023-01-22T14:58:22.176Z,60.91
2023-01-22T15:00:52.450Z,61.04
2023-01-22T15:03:21.644Z,60.89
2023-01-22T15:05:53.900Z,60.75
2023-01-22T15:08:22.852Z,60.79
2023-01-22T15:10:51.800Z,60.73
2023-01-22T15:13:20.690Z,60.77
2023-01-22T15:15:49.777Z,60.93
2023-01-22T15:18:18.727Z,60.68
2023-01-22T15:20:47.807Z,60.82
2023-01-22T15:23:16.807Z,60.79
2023-01-22T15:25:45.711Z,60.82
2023-01-22T15:28:14.788Z,60.72
2023-01-22T15:30:47.461Z,60.73
2023-01-22T15:33:16.700Z,60.71
2023-01-22T15:35:45.615Z,60.79
2023-01-22T15:38:14.964Z,60.73
2023-01-22T15:40:44.038Z,60.70
2023-01-22T15:43:13.002Z,60.56
2023-01-22T15:45:41.927Z,60.86
2023-01-22T15:48:11.877Z,60.53
2023-01-22T15:50:41.340Z,60.61
2023-01-22T15:53:10.458Z,60.53
2023-01-22T15:55:39.343Z,60.59
2023-01-22T15:58:08.627Z,60.37
2023-01-22T16:00:38.457Z,60.16
2023-01-22T16:03:07.760Z,60.40
2023-01-22T16:05:36.636Z,60.62
2023-01-22T16:08:05.740Z,60.55
2023-01-22T16:10:34.990Z,60.38
2023-01-22T16:13:03.823Z,60.54
2023-01-22T16:15:32.954Z,60.52
2023-01-22T16:18:01.884Z,60.49
2023-01-22T16:20:31.041Z,60.70
2023-01-22T16:22:59.858Z,60.33
2023-01-22T16:25:29.031Z,60.53
2023-01-22T16:27:58.084Z,60.61
2023-01-22T16:30:26.921Z,60.16
2023-01-22T16:32:56.013Z,60.23
2023-01-22T16:35:25.239Z,60.58
2023-01-22T16:37:54.183Z,60.51
2023-01-22T16:40:22.997Z,60.36
2023-01-22T16:43:02.173Z,60.52
2023-01-22T16:45:31.316Z,60.55
2023-01-22T16:48:00.883Z,60.68
2023-01-22T16:50:30.004Z,60.38
2023-01-22T16:52:59.278Z,60.46
2023-01-22T16:55:28.629Z,60.52
2023-01-22T16:57:59.632Z,60.52
2023-01-22T17:00:29.412Z,60.74
2023-01-22T17:03:00.500Z,60.78
2023-01-22T17:05:29.633Z,60.65
2023-01-22T17:07:58.742Z,60.59
2023-01-22T17:10:28.072Z,60.46
2023-01-22T17:12:56.916Z,60.77
2023-01-22T17:15:25.868Z,60.87
2023-01-22T17:17:54.868Z,60.78
2023-01-22T17:20:23.790Z,60.66
2023-01-22T17:22:52.665Z,60.93
2023-01-22T17:25:22.167Z,60.96
2023-01-22T17:27:51.052Z,60.79
2023-01-22T17:30:20.169Z,60.94
2023-01-22T17:32:49.633Z,60.82
2023-01-22T17:35:18.844Z,60.76
2023-01-22T17:37:48.459Z,61.04
2023-01-22T17:40:17.434Z,60.67
2023-01-22T17:42:46.236Z,60.87
2023-01-22T17:45:15.360Z,60.67
2023-01-22T17:47:45.935Z,60.73
2023-01-22T17:50:14.881Z,61.01
2023-01-22T17:52:43.938Z,60.59
2023-01-22T17:55:13.090Z,60.88
2023-01-22T17:57:42.124Z,60.79
2023-01-22T18:00:12.539Z,60.99
2023-01-22T18:02:41.904Z,60.79
2023-01-22T18:05:10.809Z,60.81
2023-01-22T18:07:39.668Z,60.85
2023-01-22T18:10:09.023Z,60.84
2023-01-22T18:12:37.861Z,60.81
2023-01-22T18:15:07.483Z,60.50
2023-01-22T18:17:36.454Z,60.71
2023-01-22T18:20:07.099Z,60.54
2023-01-22T18:22:36.159Z,60.49
2023-01-22T18:25:05.329Z,60.57
2023-01-22T18:27:34.205Z,60.76
2023-01-22T18:30:03.010Z,60.36
2023-01-22T18:32:32.348Z,60.57
2023-01-22T18:35:01.426Z,60.56
2023-01-22T18:37:34.376Z,60.47
2023-01-22T18:40:03.513Z,60.55
2023-01-22T18:42:32.456Z,60.79
2023-01-22T18:45:01.332Z,60.48
2023-01-22T18:47:34.777Z,60.52
2023-01-22T18:50:04.099Z,60.68
2023-01-22T18:52:34.278Z,60.51
2023-01-22T18:55:03.241Z,60.50
2023-01-22T18:57:35.016Z,60.47
2023-01-22T19:00:04.795Z,60.50
2023-01-22T19:02:34.720Z,60.46
2023-01-22T19:05:03.699Z,60.54
2023-01-22T19:07:38.549Z,60.80
2023-01-22T19:10:09.301Z,60.49
2023-01-22T19:12:38.079Z,60.67
2023-01-22T19:15:07.601Z,60.54
2023-01-22T19:17:36.606Z,60.35
2023-01-22T19:20:09.998Z,60.44
2023-01-22T19:22:38.795Z,60.44
2023-01-22T19:25:08.286Z,60.31
2023-01-22T19:27:37.686Z,60.55
2023-01-22T19:30:07.704Z,60.62
2023-01-22T19:32:38.559Z,60.49
2023-01-22T19:35:08.189Z,60.46
2023-01-22T19:37:37.054Z,60.40
2023-01-22T19:40:07.824Z,60.24
2023-01-22T19:42:36.724Z,60.41
2023-01-22T19:45:05.898Z,60.42
2023-01-22T19:47:35.021Z,60.34
2023-01-22T19:50:03.975Z,60.47
2023-01-22T19:52:33.330Z,60.48
2023-01-22T19:55:02.156Z,60.45
2023-01-22T19:57:33.936Z,60.67
2023-01-22T20:00:02.877Z,60.62
2023-01-22T20:02:38.894Z,60.41
2023-01-22T20:05:08.386Z,60.61
2023-01-22T20:07:37.212Z,60.89
2023-01-22T20:10:06.962Z,60.50
2023-01-22T20:12:35.841Z,60.67
2023-01-22T20:15:05.479Z,60.71
2023-01-22T20:17:34.594Z,60.81
2023-01-22T20:20:05.740Z,60.71
2023-01-22T20:22:34.610Z,60.50
2023-01-22T20:25:04.416Z,60.72
2023-01-22T20:27:33.947Z,60.58
2023-01-22T20:30:03.095Z,60.70
2023-01-22T20:32:32.701Z,60.49
2023-01-22T20:35:01.709Z,60.54
2023-01-22T20:37:32.081Z,60.62
2023-01-22T20:40:01.122Z,60.67
2023-01-22T20:42:30.218Z,60.85
2023-01-22T20:44:59.136Z,60.81
2023-01-22T20:47:28.061Z,60.96
2023-01-22T20:49:56.896Z,60.53
2023-01-22T20:52:25.898Z,60.64
2023-01-22T20:55:01.351Z,60.64
2023-01-22T20:57:33.241Z,60.68
2023-01-22T21:00:02.240Z,60.77
2023-01-22T21:02:35.420Z,60.79
2023-01-22T21:05:05.233Z,60.73
2023-01-22T21:07:34.161Z,60.61
2023-01-22T21:10:03.372Z,60.92
2023-01-22T21:12:32.538Z,60.82
2023-01-22T21:15:01.463Z,61.05
2023-01-22T21:17:32.204Z,60.93
2023-01-22T21:20:01.235Z,60.79
2023-01-22T21:22:32.380Z,60.93
2023-01-22T21:25:01.307Z,61.09
2023-01-22T21:27:31.648Z,61.01
2023-01-22T21:30:00.492Z,61.09
2023-01-22T21:32:31.250Z,60.96
2023-01-22T21:35:01.986Z,60.67
2023-01-22T21:37:32.051Z,60.80
2023-01-22T21:40:00.883Z,61.13
2023-01-22T21:42:49.953Z,60.81
2023-01-22T21:45:37.371Z,60.92
2023-01-22T21:48:06.611Z,60.78
2023-01-22T21:50:39.374Z,60.89
2023-01-22T21:53:10.136Z,60.82
2023-01-22T21:55:39.177Z,60.77
2023-01-22T21:58:09.000Z,60.53
2023-01-22T22:00:38.373Z,60.52
2023-01-22T22:03:07.846Z,60.66
2023-01-22T22:05:36.673Z,60.77
2023-01-22T22:08:05.903Z,60.71
2023-01-22T22:10:34.904Z,60.50
2023-01-22T22:13:04.474Z,60.48
2023-01-22T22:15:34.398Z,60.62
2023-01-22T22:18:03.220Z,60.59
2023-01-22T22:20:34.356Z,60.73
2023-01-22T22:23:03.295Z,60.51
2023-01-22T22:25:33.383Z,60.60
2023-01-22T22:28:02.318Z,60.63
2023-01-22T22:30:31.073Z,60.56
2023-01-22T22:33:00.163Z,60.58
2023-01-22T22:35:29.143Z,60.63
2023-01-22T22:37:58.546Z,60.46
2023-01-22T22:40:27.461Z,60.65
2023-01-22T22:42:56.536Z,60.57
2023-01-22T22:45:25.620Z,60.48
2023-01-22T22:47:54.460Z,60.61
2023-01-22T22:50:23.434Z,60.68
2023-01-22T22:52:52.415Z,60.40
2023-01-22T22:55:21.231Z,60.37
2023-01-22T22:57:50.336Z,60.23
2023-01-22T23:00:20.781Z,60.52
2023-01-22T23:02:50.943Z,60.30
2023-01-22T23:05:20.081Z,60.35
2023-01-22T23:07:49.014Z,60.26
2023-01-22T23:10:30.004Z,60.20
2023-01-22T23:13:01.399Z,60.33
2023-01-22T23:15:31.670Z,60.26
2023-01-22T23:18:01.402Z,60.54
2023-01-22T23:20:30.360Z,60.66
2023-01-22T23:22:59.882Z,60.41
2023-01-22T23:25:28.841Z,60.48
2023-01-22T23:27:57.810Z,60.42
2023-01-22T23:30:27.796Z,60.58
2023-01-22T23:32:56.651Z,60.63
2023-01-22T23:35:25.722Z,60.55
2023-01-22T23:37:54.484Z,60.90
2023-01-22T23:40:23.999Z,60.84
2023-01-22T23:42:52.900Z,60.60
2023-01-22T23:45:21.740Z,60.54
2023-01-22T23:47:52.389Z,60.67
2023-01-22T23:50:21.572Z,60.66
2023-01-22T23:52:50.585Z,60.49
2023-01-22T23:55:19.569Z,60.51
2023-01-22T23:57:48.721Z,60.55
